CheckWX is a tool to help pilots better visualize weather data.  It is not intended as a substitute for an official pre-flight weather briefing.

12:25:04 UTC

LTFH TAF
Samsun Çarşamba Airport
Samsun, Turkey
TAF LTFH 221040Z 2212/2221 VRB02KT 9999 FEW033 BKN100

Mar-22@
12:00 UTC

Mar-22 @ 12:00 UTC

Mar-22@
21:00 UTC

Mar-22 @ 21:00 UTC

TAF LTFH 221040Z 2212/2221 VRB02KT 9999 FEW033 BKN100
Wind
  • Variable at 2 KTS
Cloud Levels
  • Few at 3,300' AGL
  • Broken at 10,000' AGL